Rainbow City, Alabama
Current Conditions -  °F | °C
As of 11:55 AM on Saturday 25 Oct 2014 (Local Time) from KGAD Reporting Station
Clear Clear  
Wind Chill: 70°   Ceiling: Unl
Heat Index: 70°   Visibility: 10mi
Dew Point: 50°   Wind: 7mph
Humidity: 49%   Direction: 330°NNW
Pressure: 30.1"   Gusts: NA
Location:  33.95°N, 86.04°W
Report Text: KGAD 251655Z 33006KT 10SM CLR 21/10 A3010 RMK AO1
Loading
Personal Weather Stations






























Interactive Weather Map
Tropical Storm Tracking
New forecast layout! Learn more

10-Day Weather Forecast

Advertisements
Track Severe Weather on mobile